createdAt,value
2018-12-25T00:00:25.089Z,102391.03
2018-12-25T00:02:53.730Z,102386.03
2018-12-25T00:05:22.326Z,102378.59
2018-12-25T00:07:50.969Z,102397.09
2018-12-25T00:10:19.568Z,102381.31
2018-12-25T00:12:49.787Z,102394.16
2018-12-25T00:15:18.444Z,102391.15
2018-12-25T00:17:47.110Z,102380.17
2018-12-25T00:20:15.768Z,102383.30
2018-12-25T00:22:47.473Z,102386.14
2018-12-25T00:25:16.060Z,102395.20
2018-12-25T00:27:44.686Z,102390.11
2018-12-25T00:30:13.308Z,102384.16
2018-12-25T00:32:41.957Z,102385.30
2018-12-25T00:35:10.552Z,102395.13
2018-12-25T00:37:39.258Z,102381.98
2018-12-25T00:40:07.869Z,102378.42
2018-12-25T00:42:36.656Z,102377.78
2018-12-25T00:45:05.785Z,102380.11
2018-12-25T00:47:34.454Z,102373.31
2018-12-25T00:50:03.097Z,102372.77
2018-12-25T00:52:31.706Z,102373.52
2018-12-25T00:55:00.351Z,102381.23
2018-12-25T00:57:29.136Z,102379.16
2018-12-25T00:59:58.230Z,102374.86
2018-12-25T01:02:27.057Z,102371.02
2018-12-25T01:04:55.884Z,102373.09
2018-12-25T01:07:25.989Z,102373.18
2018-12-25T01:09:55.965Z,102379.68
2018-12-25T01:12:24.649Z,102393.14
2018-12-25T01:14:54.440Z,102381.12
2018-12-25T01:17:23.352Z,102393.34
2018-12-25T01:19:52.139Z,102391.04
2018-12-25T01:22:21.038Z,102397.42
2018-12-25T01:24:49.717Z,102397.02
2018-12-25T01:27:18.606Z,102394.91
2018-12-25T01:29:47.295Z,102393.98
2018-12-25T01:32:15.980Z,102389.16
2018-12-25T01:34:44.770Z,102393.46
2018-12-25T01:37:14.026Z,102396.91
2018-12-25T01:39:42.756Z,102394.39
2018-12-25T01:42:11.956Z,102402.13
2018-12-25T01:44:40.847Z,102396.91
2018-12-25T01:47:09.526Z,102395.14
2018-12-25T01:49:38.419Z,102394.91
2018-12-25T01:52:07.204Z,102397.52
2018-12-25T01:54:36.356Z,102392.00
2018-12-25T01:57:05.090Z,102390.64
2018-12-25T01:59:33.888Z,102397.84
2018-12-25T02:02:02.662Z,102393.64
2018-12-25T02:04:31.353Z,102391.06
2018-12-25T02:07:00.139Z,102393.13
2018-12-25T02:09:29.290Z,102387.28
2018-12-25T02:11:58.021Z,102395.52
2018-12-25T02:14:27.752Z,102384.77
2018-12-25T02:16:56.522Z,102382.48
2018-12-25T02:19:25.410Z,102382.08
2018-12-25T02:21:54.199Z,102379.26
2018-12-25T02:24:22.889Z,102384.45
2018-12-25T02:26:51.981Z,102389.17
2018-12-25T02:29:20.882Z,102379.55
2018-12-25T02:31:49.657Z,102377.14
2018-12-25T02:34:18.612Z,102372.98
2018-12-25T02:36:47.352Z,102362.01
2018-12-25T02:39:16.023Z,102366.37
2018-12-25T02:41:44.811Z,102373.27
2018-12-25T02:44:13.599Z,102369.08
2018-12-25T02:46:42.385Z,102372.31
2018-12-25T02:49:11.086Z,102368.36
2018-12-25T02:51:39.870Z,102362.61
2018-12-25T02:54:08.752Z,102363.24
2018-12-25T02:56:37.540Z,102364.89
2018-12-25T02:59:06.224Z,102354.66
2018-12-25T03:01:35.221Z,102362.09
2018-12-25T03:04:04.110Z,102360.01
2018-12-25T03:06:32.998Z,102351.41
2018-12-25T03:09:01.689Z,102352.34
2018-12-25T03:11:30.479Z,102352.97
2018-12-25T03:13:59.160Z,102351.09
2018-12-25T03:16:27.947Z,102356.61
2018-12-25T03:18:56.738Z,102344.57
2018-12-25T03:21:25.524Z,102350.11
2018-12-25T03:23:54.542Z,102342.88
2018-12-25T03:26:23.303Z,102347.73
2018-12-25T03:28:52.194Z,102353.05
2018-12-25T03:31:21.007Z,102338.41
2018-12-25T03:33:49.871Z,102335.75
2018-12-25T03:36:18.562Z,102337.11
2018-12-25T03:38:47.351Z,102344.50
2018-12-25T03:41:16.133Z,102340.83
2018-12-25T03:43:45.026Z,102345.34
2018-12-25T03:46:13.831Z,102345.86
2018-12-25T03:48:42.599Z,102337.18
2018-12-25T03:51:11.390Z,102347.94
2018-12-25T03:53:40.175Z,102336.80
2018-12-25T03:56:09.115Z,102342.99
2018-12-25T03:58:37.856Z,102335.75
2018-12-25T04:01:06.850Z,102334.72
2018-12-25T04:03:35.774Z,102340.35
2018-12-25T04:06:04.547Z,102342.16
2018-12-25T04:08:33.329Z,102332.73
2018-12-25T04:11:02.103Z,102328.33
2018-12-25T04:13:30.890Z,102329.30
2018-12-25T04:15:59.575Z,102322.30
2018-12-25T04:18:28.377Z,102324.26
2018-12-25T04:20:57.152Z,102316.47
2018-12-25T04:23:26.042Z,102320.44
2018-12-25T04:25:54.832Z,102323.03
2018-12-25T04:28:23.620Z,102321.46
2018-12-25T04:30:52.352Z,102325.87
2018-12-25T04:33:21.098Z,102323.66
2018-12-25T04:35:49.783Z,102318.95
2018-12-25T04:38:18.567Z,102320.30
2018-12-25T04:40:47.361Z,102317.19
2018-12-25T04:43:16.142Z,102317.80
2018-12-25T04:45:44.827Z,102323.46
2018-12-25T04:48:13.619Z,102326.58
2018-12-25T04:50:42.302Z,102330.97
2018-12-25T04:53:11.091Z,102330.66
2018-12-25T04:55:39.878Z,102326.98
2018-12-25T04:58:10.305Z,102336.41
2018-12-25T05:00:38.991Z,102337.25
2018-12-25T05:03:07.784Z,102334.41
2018-12-25T05:05:36.565Z,102325.78
2018-12-25T05:08:05.356Z,102329.94
2018-12-25T05:10:34.875Z,102331.41
2018-12-25T05:13:03.612Z,102336.41
2018-12-25T05:15:32.435Z,102338.52
2018-12-25T05:18:01.249Z,102333.30
2018-12-25T05:20:37.782Z,102335.17
2018-12-25T05:23:02.180Z,102341.44
2018-12-25T05:25:31.067Z,102330.69
2018-12-25T05:27:59.856Z,102342.08
2018-12-25T05:30:28.647Z,102347.39
2018-12-25T05:32:57.503Z,102347.39
2018-12-25T05:35:26.221Z,102342.08
2018-12-25T05:37:54.907Z,102341.44
2018-12-25T05:40:23.694Z,102344.91
2018-12-25T05:42:52.534Z,102346.55
2018-12-25T05:45:21.273Z,102358.89
2018-12-25T05:47:50.164Z,102355.42
2018-12-25T05:50:18.973Z,102353.55
2018-12-25T05:52:49.477Z,102353.14
2018-12-25T05:55:19.532Z,102353.34
2018-12-25T05:57:48.347Z,102356.89
2018-12-25T06:00:17.070Z,102352.30
2018-12-25T06:02:47.087Z,102346.95
2018-12-25T06:05:15.782Z,102356.66
2018-12-25T06:07:44.462Z,102349.06
2018-12-25T06:10:13.247Z,102348.42
2018-12-25T06:12:42.036Z,102342.47
2018-12-25T06:15:11.029Z,102342.67
2018-12-25T06:17:39.944Z,102337.77
2018-12-25T06:20:10.345Z,102342.35
2018-12-25T06:22:39.192Z,102340.16
2018-12-25T06:25:07.819Z,102338.48
2018-12-25T06:27:36.609Z,102342.67
2018-12-25T06:30:07.363Z,102337.32
2018-12-25T06:32:36.026Z,102348.63
2018-12-25T06:35:05.121Z,102353.30
2018-12-25T06:37:34.012Z,102345.67
2018-12-25T06:40:02.823Z,102346.50
2018-12-25T06:42:31.590Z,102341.39
2018-12-25T06:45:00.276Z,102341.07
2018-12-25T06:47:29.063Z,102332.92
2018-12-25T06:49:57.956Z,102328.97
2018-12-25T06:52:28.230Z,102322.16
2018-12-25T06:54:56.864Z,102320.25
2018-12-25T06:57:27.592Z,102306.59
2018-12-25T06:59:56.496Z,102326.72
2018-12-25T07:02:25.284Z,102324.44
2018-12-25T07:04:54.265Z,102325.16
2018-12-25T07:07:23.006Z,102326.91
2018-12-25T07:09:51.739Z,102311.06
2018-12-25T07:12:20.628Z,102302.52
2018-12-25T07:14:49.314Z,102303.29
2018-12-25T07:17:18.105Z,102301.23
2018-12-25T07:19:46.890Z,102296.44
2018-12-25T07:22:15.780Z,102291.73
2018-12-25T07:24:45.597Z,102294.80
2018-12-25T07:27:14.283Z,102290.30
2018-12-25T07:29:43.173Z,102284.98
2018-12-25T07:32:12.265Z,102281.05
2018-12-25T07:34:41.128Z,102290.16
2018-12-25T07:37:10.185Z,102279.55
2018-12-25T07:39:38.823Z,102269.75
2018-12-25T07:42:07.422Z,102270.70
2018-12-25T07:44:38.896Z,102277.09
2018-12-25T07:47:07.552Z,102280.20
2018-12-25T07:49:36.340Z,102273.36
2018-12-25T07:52:05.083Z,102269.61
2018-12-25T07:54:33.817Z,102267.07
2018-12-25T07:57:02.500Z,102262.73
2018-12-25T07:59:31.289Z,102255.19
2018-12-25T08:01:59.978Z,102270.50
2018-12-25T08:04:28.760Z,102271.49
2018-12-25T08:06:57.490Z,102270.95
2018-12-25T08:09:26.440Z,102284.00
2018-12-25T08:11:55.229Z,102283.72
2018-12-25T08:14:24.017Z,102287.45
2018-12-25T08:16:52.809Z,102285.96
2018-12-25T08:19:22.644Z,102283.75
2018-12-25T08:21:53.044Z,102284.91
2018-12-25T08:24:21.803Z,102293.26
2018-12-25T08:26:50.496Z,102284.60
2018-12-25T08:29:19.331Z,102286.59
2018-12-25T08:31:47.990Z,102285.61
2018-12-25T08:34:16.758Z,102287.78
2018-12-25T08:36:45.606Z,102290.16
2018-12-25T08:39:14.355Z,102293.09
2018-12-25T08:41:43.264Z,102299.16
2018-12-25T08:44:11.934Z,102298.27
2018-12-25T08:46:40.980Z,102293.59
2018-12-25T08:49:09.716Z,102288.75
2018-12-25T08:51:38.397Z,102293.82
2018-12-25T08:54:07.291Z,102293.77
2018-12-25T08:56:36.179Z,102277.64
2018-12-25T08:59:04.971Z,102280.33
2018-12-25T09:01:33.752Z,102280.55
2018-12-25T09:04:02.543Z,102281.41
2018-12-25T09:06:31.329Z,102291.81
2018-12-25T09:09:00.118Z,102289.85
2018-12-25T09:11:29.008Z,102299.55
2018-12-25T09:13:57.947Z,102307.23
2018-12-25T09:16:26.789Z,102311.17
2018-12-25T09:18:55.650Z,102307.82
2018-12-25T09:21:24.396Z,102300.11
2018-12-25T09:23:53.187Z,102307.89
2018-12-25T09:26:21.953Z,102303.56
2018-12-25T09:28:50.865Z,102316.91
2018-12-25T09:31:19.445Z,102317.27
2018-12-25T09:33:48.101Z,102303.36
2018-12-25T09:36:16.888Z,102302.88
2018-12-25T09:38:45.595Z,102298.48
2018-12-25T09:41:14.865Z,102298.62
2018-12-25T09:43:43.573Z,102298.80
2018-12-25T09:46:12.150Z,102289.62
2018-12-25T09:48:40.842Z,102284.95
2018-12-25T09:51:09.423Z,102276.95
2018-12-25T09:53:38.035Z,102293.52
2018-12-25T09:56:06.624Z,102281.52
2018-12-25T09:58:36.913Z,102281.23
2018-12-25T10:01:05.564Z,102283.67
2018-12-25T10:03:34.256Z,102290.58
2018-12-25T10:06:02.859Z,102291.39
2018-12-25T10:08:31.486Z,102286.80
2018-12-25T10:11:00.102Z,102297.67
2018-12-25T10:13:28.818Z,102294.30
2018-12-25T10:15:57.502Z,102296.16
2018-12-25T10:18:26.401Z,102293.31
2018-12-25T10:20:55.021Z,102290.62
2018-12-25T10:23:23.669Z,102291.45
2018-12-25T10:25:52.390Z,102288.38
2018-12-25T10:28:21.144Z,102293.40
2018-12-25T10:30:49.750Z,102283.89
2018-12-25T10:33:18.472Z,102284.53
2018-12-25T10:35:47.152Z,102283.91
2018-12-25T10:38:15.762Z,102284.72
2018-12-25T10:40:44.395Z,102280.55
2018-12-25T10:43:13.035Z,102288.92
2018-12-25T10:45:41.663Z,102284.77
2018-12-25T10:48:10.421Z,102290.71
2018-12-25T10:50:38.987Z,102296.41
2018-12-25T10:53:07.700Z,102291.89
2018-12-25T10:55:36.278Z,102295.05
2018-12-25T10:58:04.913Z,102288.98
2018-12-25T11:00:36.861Z,102292.70
2018-12-25T11:03:05.503Z,102288.67
2018-12-25T11:05:34.076Z,102291.02
2018-12-25T11:08:02.689Z,102287.77
2018-12-25T11:10:31.378Z,102298.52
2018-12-25T11:13:00.132Z,102292.59
2018-12-25T11:15:28.711Z,102286.09
2018-12-25T11:17:57.374Z,102289.66
2018-12-25T11:20:26.312Z,102289.91
2018-12-25T11:22:54.941Z,102280.66
2018-12-25T11:25:23.648Z,102287.30
2018-12-25T11:27:52.448Z,102283.83
2018-12-25T11:30:21.142Z,102274.00
2018-12-25T11:32:49.867Z,102282.84
2018-12-25T11:35:18.445Z,102290.41
2018-12-25T11:37:47.065Z,102285.56
2018-12-25T11:40:15.852Z,102297.97
2018-12-25T11:42:44.616Z,102290.48
2018-12-25T11:45:13.755Z,102291.02
2018-12-25T11:47:42.553Z,102289.30
2018-12-25T11:50:11.172Z,102286.63
2018-12-25T11:52:39.793Z,102288.61
2018-12-25T11:55:08.379Z,102286.41
2018-12-25T11:57:37.084Z,102291.64
2018-12-25T12:00:07.780Z,102301.02
2018-12-25T12:02:36.591Z,102290.80
2018-12-25T12:05:05.185Z,102297.72
2018-12-25T12:07:33.888Z,102297.34
2018-12-25T12:10:02.559Z,102298.92
2018-12-25T12:12:31.232Z,102293.69
2018-12-25T12:14:59.912Z,102294.72
2018-12-25T12:17:28.604Z,102300.50
2018-12-25T12:19:59.938Z,102292.05
2018-12-25T12:22:36.774Z,102286.72
2018-12-25T12:24:59.051Z,102286.45
2018-12-25T12:27:27.758Z,102279.17
2018-12-25T12:29:56.400Z,102284.16
2018-12-25T12:32:25.241Z,102283.63
2018-12-25T12:34:53.949Z,102274.40
2018-12-25T12:37:22.589Z,102279.32
2018-12-25T12:39:52.855Z,102278.11
2018-12-25T12:42:21.593Z,102278.48
2018-12-25T12:44:50.276Z,102282.66
2018-12-25T12:47:19.011Z,102286.26
2018-12-25T12:49:48.157Z,102282.73
2018-12-25T12:52:16.896Z,102287.72
2018-12-25T12:54:45.541Z,102288.09
2018-12-25T12:57:14.218Z,102285.36
2018-12-25T12:59:43.030Z,102281.36
2018-12-25T13:02:11.614Z,102283.56
2018-12-25T13:04:40.311Z,102290.36
2018-12-25T13:07:08.904Z,102294.90
2018-12-25T13:09:37.682Z,102290.19
2018-12-25T13:12:06.274Z,102296.41
2018-12-25T13:14:34.915Z,102291.02
2018-12-25T13:17:03.588Z,102292.55
2018-12-25T13:19:32.250Z,102285.20
2018-12-25T13:22:00.878Z,102285.42
2018-12-25T13:24:29.540Z,102281.42
2018-12-25T13:26:58.198Z,102283.56
2018-12-25T13:29:26.955Z,102280.34
2018-12-25T13:31:55.765Z,102286.41
2018-12-25T13:34:24.827Z,102276.41
2018-12-25T13:36:53.569Z,102282.70
2018-12-25T13:39:22.268Z,102290.66
2018-12-25T13:41:51.398Z,102292.70
2018-12-25T13:44:20.265Z,102290.81
2018-12-25T13:46:51.672Z,102290.80
2018-12-25T13:49:19.220Z,102294.95
2018-12-25T13:51:47.832Z,102296.84
2018-12-25T13:54:18.034Z,102292.17
2018-12-25T13:56:46.632Z,102302.91
2018-12-25T13:59:15.283Z,102292.53
2018-12-25T14:01:43.937Z,102293.12
2018-12-25T14:04:12.579Z,102290.95
2018-12-25T14:06:41.297Z,102296.98
2018-12-25T14:09:09.956Z,102301.55
2018-12-25T14:11:38.694Z,102305.16
2018-12-25T14:14:07.425Z,102298.13
2018-12-25T14:16:36.121Z,102302.97
2018-12-25T14:19:04.757Z,102296.16
2018-12-25T14:21:33.501Z,102302.89
2018-12-25T14:24:02.304Z,102295.09
2018-12-25T14:26:30.885Z,102299.50
2018-12-25T14:28:59.548Z,102295.05
2018-12-25T14:31:28.130Z,102296.84
2018-12-25T14:33:56.782Z,102294.84
2018-12-25T14:36:25.407Z,102298.25
2018-12-25T14:38:54.012Z,102292.97
2018-12-25T14:41:22.640Z,102301.09
2018-12-25T14:43:51.324Z,102294.95
2018-12-25T14:46:19.916Z,102296.78
2018-12-25T14:48:48.629Z,102301.91
2018-12-25T14:51:17.312Z,102306.68
2018-12-25T14:53:45.970Z,102301.53
2018-12-25T14:56:14.553Z,102302.80
2018-12-25T14:58:43.206Z,102297.52
2018-12-25T15:01:11.881Z,102306.58
2018-12-25T15:03:40.650Z,102311.06
2018-12-25T15:06:09.356Z,102310.51
2018-12-25T15:08:38.109Z,102300.59
2018-12-25T15:11:06.766Z,102294.01
2018-12-25T15:13:35.426Z,102294.58
2018-12-25T15:16:04.029Z,102295.83
2018-12-25T15:18:32.661Z,102296.20
2018-12-25T15:21:01.231Z,102293.95
2018-12-25T15:23:29.908Z,102290.38
2018-12-25T15:25:58.481Z,102288.73
2018-12-25T15:28:27.211Z,102301.75
2018-12-25T15:30:55.886Z,102304.37
2018-12-25T15:33:24.507Z,102303.27
2018-12-25T15:35:53.096Z,102302.44
2018-12-25T15:38:21.765Z,102301.14
2018-12-25T15:40:50.373Z,102301.14
2018-12-25T15:43:19.058Z,102296.47
2018-12-25T15:45:47.758Z,102304.00
2018-12-25T15:48:16.488Z,102298.61
2018-12-25T15:50:45.149Z,102306.93
2018-12-25T15:53:13.949Z,102294.58
2018-12-25T15:55:42.595Z,102297.30
2018-12-25T15:58:11.403Z,102300.22
2018-12-25T16:00:40.182Z,102298.98
2018-12-25T16:03:08.960Z,102296.73
2018-12-25T16:05:38.772Z,102302.66
2018-12-25T16:08:07.537Z,102296.99
2018-12-25T16:10:36.113Z,102299.41
2018-12-25T16:13:04.736Z,102294.01
2018-12-25T16:15:33.419Z,102290.55
2018-12-25T16:18:02.144Z,102288.03
2018-12-25T16:20:30.771Z,102289.88
2018-12-25T16:22:59.416Z,102287.53
2018-12-25T16:25:28.041Z,102286.52
2018-12-25T16:27:56.740Z,102292.74
2018-12-25T16:30:25.409Z,102291.33
2018-12-25T16:32:54.058Z,102295.89
2018-12-25T16:35:22.685Z,102284.63
2018-12-25T16:37:51.379Z,102285.25
2018-12-25T16:40:20.069Z,102280.64
2018-12-25T16:42:48.683Z,102279.96
2018-12-25T16:45:17.332Z,102285.89
2018-12-25T16:47:46.009Z,102283.27
2018-12-25T16:50:14.703Z,102285.84
2018-12-25T16:52:43.389Z,102284.05
2018-12-25T16:55:12.180Z,102288.51
2018-12-25T16:57:40.863Z,102285.98
2018-12-25T17:00:10.678Z,102279.12
2018-12-25T17:02:39.361Z,102279.28
2018-12-25T17:05:08.257Z,102275.28
2018-12-25T17:07:36.938Z,102274.05
2018-12-25T17:10:07.096Z,102275.62
2018-12-25T17:12:35.719Z,102283.12
2018-12-25T17:15:04.670Z,102278.75
2018-12-25T17:17:33.329Z,102278.87
2018-12-25T17:20:01.916Z,102277.91
2018-12-25T17:22:30.544Z,102276.45
2018-12-25T17:24:59.806Z,102276.45
2018-12-25T17:27:28.524Z,102277.72
2018-12-25T17:29:57.200Z,102276.83
2018-12-25T17:32:25.846Z,102283.45
2018-12-25T17:34:54.532Z,102282.53
2018-12-25T17:37:23.155Z,102285.46
2018-12-25T17:39:51.746Z,102280.87
2018-12-25T17:42:20.430Z,102287.83
2018-12-25T17:44:50.936Z,102289.76
2018-12-25T17:47:20.516Z,102300.86
2018-12-25T17:49:49.307Z,102289.28
2018-12-25T17:52:18.200Z,102293.44
2018-12-25T17:54:46.987Z,102296.16
2018-12-25T17:57:15.787Z,102298.67
2018-12-25T17:59:44.561Z,102291.02
2018-12-25T18:02:14.999Z,102300.77
2018-12-25T18:04:43.787Z,102308.20
2018-12-25T18:07:12.483Z,102303.18
2018-12-25T18:09:41.250Z,102300.98
2018-12-25T18:12:10.146Z,102305.06
2018-12-25T18:14:38.927Z,102310.28
2018-12-25T18:17:07.715Z,102304.21
2018-12-25T18:19:36.627Z,102305.58
2018-12-25T18:22:05.472Z,102296.47
2018-12-25T18:24:34.186Z,102301.30
2018-12-25T18:27:03.188Z,102295.70
2018-12-25T18:29:31.966Z,102289.92
2018-12-25T18:32:02.432Z,102292.58
2018-12-25T18:34:31.090Z,102291.59
2018-12-25T18:37:00.138Z,102292.75
2018-12-25T18:39:29.074Z,102291.39
2018-12-25T18:41:58.023Z,102295.73
2018-12-25T18:44:26.743Z,102291.17
2018-12-25T18:46:55.532Z,102290.69
2018-12-25T18:49:25.853Z,102294.98
2018-12-25T18:51:56.287Z,102296.35
2018-12-25T18:54:27.885Z,102294.84
2018-12-25T18:56:55.502Z,102283.84
2018-12-25T18:59:24.601Z,102280.92
2018-12-25T19:01:54.406Z,102283.72
2018-12-25T19:04:24.212Z,102285.39
2018-12-25T19:06:53.007Z,102284.73
2018-12-25T19:09:21.791Z,102285.41
2018-12-25T19:11:50.784Z,102287.66
2018-12-25T19:14:20.485Z,102285.73
2018-12-25T19:16:51.700Z,102292.58
2018-12-25T19:19:22.675Z,102283.07
2018-12-25T19:21:52.389Z,102289.34
2018-12-25T19:24:21.079Z,102291.58
2018-12-25T19:26:49.755Z,102296.92
2018-12-25T19:29:18.547Z,102302.32
2018-12-25T19:31:47.232Z,102305.14
2018-12-25T19:34:16.123Z,102301.42
2018-12-25T19:36:44.807Z,102292.05
2018-12-25T19:39:13.800Z,102295.54
2018-12-25T19:41:42.485Z,102297.05
2018-12-25T19:44:11.288Z,102295.52
2018-12-25T19:46:40.271Z,102297.87
2018-12-25T19:49:09.054Z,102294.32
2018-12-25T19:51:37.844Z,102301.75
2018-12-25T19:54:06.732Z,102296.73
2018-12-25T19:56:35.521Z,102309.39
2018-12-25T19:59:04.279Z,102301.27
2018-12-25T20:01:32.893Z,102310.30
2018-12-25T20:04:03.218Z,102316.24
2018-12-25T20:06:46.967Z,102312.95
2018-12-25T20:09:52.234Z,102308.77
2018-12-25T20:12:56.420Z,102313.16
2018-12-25T20:15:55.517Z,102301.73
2018-12-25T20:18:27.478Z,102304.04
2018-12-25T20:21:14.087Z,102299.77
2018-12-25T20:24:19.241Z,102306.14
2018-12-25T20:27:18.649Z,102299.45
2018-12-25T20:30:02.770Z,102305.21
2018-12-25T20:32:37.406Z,102308.53
2018-12-25T20:35:30.664Z,102303.26
2018-12-25T20:38:17.891Z,102303.84
2018-12-25T20:41:13.502Z,102301.11
2018-12-25T20:44:18.540Z,102301.94
2018-12-25T20:47:06.886Z,102297.65
2018-12-25T20:49:54.216Z,102298.91
2018-12-25T20:52:31.735Z,102297.45
2018-12-25T20:55:29.266Z,102290.07
2018-12-25T20:58:13.207Z,102294.48
2018-12-25T21:00:56.948Z,102274.95
2018-12-25T21:03:52.974Z,102277.39
2018-12-25T21:06:42.756Z,102267.11
2018-12-25T21:09:32.948Z,102281.33
2018-12-25T21:12:39.415Z,102273.54
2018-12-25T21:15:44.390Z,102275.28
2018-12-25T21:18:38.944Z,102276.36
2018-12-25T21:21:26.166Z,102273.33
2018-12-25T21:24:31.610Z,102267.02
2018-12-25T21:27:30.609Z,102273.42
2018-12-25T21:30:00.889Z,102266.20
2018-12-25T21:32:31.054Z,102266.40
2018-12-25T21:35:11.819Z,102266.20
2018-12-25T21:37:40.916Z,102265.04
2018-12-25T21:40:09.704Z,102257.30
2018-12-25T21:42:38.900Z,102265.72
2018-12-25T21:45:08.407Z,102256.41
2018-12-25T21:47:37.298Z,102264.00
2018-12-25T21:50:08.234Z,102253.09
2018-12-25T21:52:37.022Z,102253.00
2018-12-25T21:55:08.299Z,102260.59
2018-12-25T21:57:37.979Z,102256.66
2018-12-25T22:00:10.043Z,102256.87
2018-12-25T22:02:39.752Z,102250.69
2018-12-25T22:05:08.746Z,102252.63
2018-12-25T22:07:38.250Z,102258.94
2018-12-25T22:10:08.176Z,102265.04
2018-12-25T22:12:36.953Z,102259.71
2018-12-25T22:15:07.788Z,102263.52
2018-12-25T22:17:36.588Z,102268.08
2018-12-25T22:20:14.162Z,102266.40
2018-12-25T22:22:42.970Z,102260.73
2018-12-25T22:25:11.748Z,102262.05
2018-12-25T22:27:40.535Z,102256.50
2018-12-25T22:30:09.323Z,102249.08
2018-12-25T22:32:39.032Z,102249.02
2018-12-25T22:35:07.824Z,102254.77
2018-12-25T22:37:36.610Z,102250.37
2018-12-25T22:40:06.322Z,102250.69
2018-12-25T22:42:35.111Z,102250.84
2018-12-25T22:45:05.330Z,102247.44
2018-12-25T22:47:34.015Z,102250.10
2018-12-25T22:50:02.806Z,102255.08
2018-12-25T22:52:31.693Z,102245.86
2018-12-25T22:55:00.381Z,102236.55
2018-12-25T22:57:29.167Z,102235.70
2018-12-25T22:59:57.852Z,102229.42
2018-12-25T23:02:26.640Z,102232.09
2018-12-25T23:04:55.429Z,102237.13
2018-12-25T23:07:24.219Z,102225.12
2018-12-25T23:09:52.907Z,102225.49
2018-12-25T23:12:21.587Z,102222.86
2018-12-25T23:14:50.377Z,102228.37
2018-12-25T23:17:19.064Z,102221.86
2018-12-25T23:19:47.853Z,102229.42
2018-12-25T23:22:16.538Z,102215.97
2018-12-25T23:24:45.326Z,102222.41
2018-12-25T23:27:14.011Z,102216.48
2018-12-25T23:29:42.900Z,102214.69
2018-12-25T23:32:11.691Z,102208.86
2018-12-25T23:34:40.376Z,102210.23
2018-12-25T23:37:09.163Z,102208.32
2018-12-25T23:39:38.770Z,102210.98
2018-12-25T23:42:07.455Z,102209.40
2018-12-25T23:44:36.244Z,102210.61
2018-12-25T23:47:04.932Z,102200.45
2018-12-25T23:49:33.718Z,102207.10
2018-12-25T23:52:02.403Z,102200.29
2018-12-25T23:54:31.195Z,102197.04
2018-12-25T23:56:59.877Z,102191.22
2018-12-25T23:59:28.668Z,102178.66
